createdAt,value
2018-11-12T00:01:26.025Z,3.70
2018-11-12T00:06:28.521Z,3.72
2018-11-12T00:11:31.382Z,3.50
2018-11-12T00:16:33.900Z,3.22
2018-11-12T00:21:36.470Z,3.98
2018-11-12T00:26:38.916Z,4.30
2018-11-12T00:31:41.536Z,4.12
2018-11-12T00:36:44.654Z,4.42
2018-11-12T00:41:47.251Z,4.75
2018-11-12T00:46:50.235Z,5.05
2018-11-12T00:51:52.788Z,5.70
2018-11-12T00:56:55.412Z,4.85
2018-11-12T01:02:04.877Z,5.50
2018-11-12T01:07:07.353Z,4.53
2018-11-12T01:12:09.846Z,5.20
2018-11-12T01:17:12.357Z,5.03
2018-11-12T01:22:14.871Z,5.95
2018-11-12T01:27:17.376Z,5.78
2018-11-12T01:32:19.941Z,5.45
2018-11-12T01:37:23.178Z,5.42
2018-11-12T01:42:25.926Z,5.20
2018-11-12T01:47:28.714Z,5.20
2018-11-12T01:52:33.293Z,4.58
2018-11-12T01:57:36.344Z,4.78
2018-11-12T02:02:40.434Z,5.05
2018-11-12T02:07:42.971Z,4.95
2018-11-12T02:12:46.991Z,5.05
2018-11-12T02:17:50.052Z,5.25
2018-11-12T02:22:53.263Z,4.80
2018-11-12T02:27:56.223Z,4.80
2018-11-12T02:32:59.149Z,5.20
2018-11-12T02:38:01.722Z,4.80
2018-11-12T02:43:04.359Z,5.15
2018-11-12T02:48:06.836Z,4.65
2018-11-12T02:53:10.355Z,4.90
2018-11-12T02:58:12.973Z,5.50
2018-11-12T03:03:15.473Z,4.70
2018-11-12T03:08:17.906Z,4.85
2018-11-12T03:13:20.373Z,4.92
2018-11-12T03:18:22.988Z,4.40
2018-11-12T03:23:25.512Z,5.33
2018-11-12T03:28:28.184Z,5.10
2018-11-12T03:33:30.765Z,4.70
2018-11-12T03:38:33.264Z,5.45
2018-11-12T03:43:35.656Z,4.67
2018-11-12T03:48:38.358Z,4.75
2018-11-12T03:53:40.863Z,4.50
2018-11-12T03:58:43.277Z,4.75
2018-11-12T04:03:45.673Z,4.65
2018-11-12T04:08:48.124Z,4.83
2018-11-12T04:13:50.629Z,4.30
2018-11-12T04:18:53.039Z,4.20
2018-11-12T04:23:55.439Z,4.53
2018-11-12T04:28:57.958Z,3.75
2018-11-12T04:34:00.452Z,3.95
2018-11-12T04:39:03.231Z,3.95
2018-11-12T04:44:05.788Z,4.15
2018-11-12T04:49:08.234Z,4.40
2018-11-12T04:54:10.752Z,4.05
2018-11-12T04:59:13.342Z,4.50
2018-11-12T05:04:15.787Z,4.40
2018-11-12T05:09:18.165Z,4.00
2018-11-12T05:14:20.602Z,4.65
2018-11-12T05:19:23.084Z,5.15
2018-11-12T05:24:25.754Z,4.80
2018-11-12T05:29:28.175Z,5.20
2018-11-12T05:34:31.303Z,4.85
2018-11-12T05:39:33.672Z,5.33
2018-11-12T05:55:51.218Z,5.45
2018-11-12T06:51:23.007Z,6.72
2018-11-12T16:55:10.337Z,3.33
2018-11-12T17:00:16.177Z,3.47
2018-11-12T17:05:19.991Z,3.30
2018-11-12T17:10:24.109Z,3.72
2018-11-12T17:15:26.665Z,3.33
2018-11-12T17:20:29.254Z,4.58
2018-11-12T17:25:32.344Z,3.20
2018-11-12T17:30:34.988Z,3.90
2018-11-12T17:35:37.673Z,2.92
2018-11-12T17:40:40.308Z,2.60
2018-11-12T17:45:42.949Z,2.60
2018-11-12T17:50:45.426Z,3.10
2018-11-12T17:55:50.138Z,2.85
2018-11-12T18:00:55.861Z,2.90
2018-11-12T18:07:00.717Z,2.45
2018-11-12T18:12:03.254Z,2.45
2018-11-12T18:17:06.122Z,2.80
2018-11-12T18:22:09.720Z,3.00
2018-11-12T18:27:12.318Z,2.70
2018-11-12T18:32:15.090Z,2.47
2018-11-12T18:37:17.898Z,2.90
2018-11-12T18:42:20.667Z,2.87
2018-11-12T18:47:23.293Z,3.12
2018-11-12T18:52:25.979Z,3.37
2018-11-12T18:57:28.733Z,3.60
2018-11-12T19:02:31.233Z,3.60
2018-11-12T19:07:33.855Z,3.70
2018-11-12T19:12:36.495Z,3.58
2018-11-12T19:17:39.166Z,3.33
2018-11-12T19:22:41.872Z,3.85
2018-11-12T19:27:44.793Z,3.42
2018-11-12T19:32:48.657Z,3.95
2018-11-12T19:37:51.530Z,3.12
2018-11-12T19:42:54.907Z,3.60
2018-11-12T19:47:57.447Z,4.10
2018-11-12T19:53:00.340Z,3.95
2018-11-12T19:58:03.075Z,3.62
2018-11-12T20:03:05.732Z,3.58
2018-11-12T20:08:08.371Z,4.17
2018-11-12T20:13:11.059Z,4.20
2018-11-12T20:18:13.609Z,4.08
2018-11-12T20:23:16.227Z,4.53
2018-11-12T20:28:18.876Z,4.70
2018-11-12T20:33:21.550Z,4.28
2018-11-12T20:38:24.872Z,4.65
2018-11-12T20:43:28.714Z,5.22
2018-11-12T20:48:31.485Z,4.80
2018-11-12T20:53:34.233Z,5.05
2018-11-12T20:58:36.744Z,5.05
2018-11-12T21:03:40.139Z,5.33
2018-11-12T21:08:42.761Z,4.75
2018-11-12T21:13:45.360Z,5.30
2018-11-12T21:18:47.949Z,5.70
2018-11-12T21:23:51.517Z,5.92
2018-11-12T21:28:54.122Z,5.60
2018-11-12T21:33:56.722Z,5.70
2018-11-12T21:38:59.199Z,4.80
2018-11-12T21:44:01.887Z,5.67
2018-11-12T21:49:05.913Z,5.65
2018-11-12T21:54:08.442Z,4.87
2018-11-12T21:59:11.089Z,4.62
2018-11-12T22:04:13.632Z,5.12
2018-11-12T22:09:16.509Z,4.67
2018-11-12T22:14:19.004Z,4.70
2018-11-12T22:19:21.778Z,4.17
2018-11-12T22:24:24.193Z,4.85
2018-11-12T22:29:26.686Z,5.05
2018-11-12T22:34:29.147Z,4.95
2018-11-12T22:39:31.669Z,5.20
2018-11-12T22:44:34.161Z,4.37
2018-11-12T22:49:36.935Z,4.53
2018-11-12T22:54:39.383Z,4.40
2018-11-12T22:59:41.960Z,4.90
2018-11-12T23:04:44.456Z,5.17
2018-11-12T23:09:46.924Z,5.28
2018-11-12T23:14:49.489Z,5.08
2018-11-12T23:19:52.265Z,6.08
2018-11-12T23:24:54.814Z,5.05
2018-11-12T23:29:57.383Z,5.10
2018-11-12T23:34:59.880Z,5.47
2018-11-12T23:40:02.531Z,4.90
2018-11-12T23:45:05.544Z,5.92
2018-11-12T23:50:09.954Z,5.42
2018-11-12T23:55:13.008Z,5.12
